Time;durP1;ratioP1;P1;durP2;ratioP2;P2;SDS_P1;SDS_P2;PMS_P1;PMS_P2;Temp;Humidity;BMP_temperature;BMP_pressure;BME280_temperature;BME280_humidity;BME280_pressure;Samples;Min_cycle;Max_cycle;Signal;HPM_P1;HPM_P2
2024/01/20 00:01:16;;;;;;;1.15;0.98;;;21.80;36.40;;;;;;5116652;27;20020;-38
2024/01/20 00:03:42;;;;;;;1.10;1.00;;;21.80;36.30;;;;;;5116753;28;20041;-37
2024/01/20 00:06:08;;;;;;;1.52;1.10;;;21.70;36.10;;;;;;5118296;27;20035;-38
2024/01/20 00:08:34;;;;;;;1.23;1.02;;;21.70;36.30;;;;;;5119803;27;20030;-39
2024/01/20 00:11:00;;;;;;;2.10;1.23;;;21.60;36.30;;;;;;5112097;28;20042;-39
2024/01/20 00:13:27;;;;;;;1.17;1.00;;;21.50;36.40;;;;;;5115711;28;20051;-36
2024/01/20 00:15:53;;;;;;;1.05;0.82;;;21.50;36.50;;;;;;5119906;28;20035;-37
2024/01/20 00:18:19;;;;;;;1.65;1.10;;;21.50;36.40;;;;;;5118664;27;20099;-38
2024/01/20 00:20:46;;;;;;;3.47;1.02;;;21.70;36.00;;;;;;5119939;27;20031;-35
2024/01/20 00:23:13;;;;;;;7.05;1.20;;;21.80;36.00;;;;;;5118950;28;20031;-40
2024/01/20 00:25:40;;;;;;;1.15;1.05;;;21.80;36.20;;;;;;5116976;27;20567;-37
2024/01/20 00:28:06;;;;;;;2.78;1.23;;;21.70;36.20;;;;;;5118358;28;21324;-38
2024/01/20 00:30:32;;;;;;;2.85;1.20;;;21.60;36.00;;;;;;5119340;28;20069;-38
2024/01/20 00:32:58;;;;;;;5.32;1.13;;;21.70;35.80;;;;;;5116173;28;20024;-38
2024/01/20 00:35:24;;;;;;;3.47;1.17;;;21.80;35.70;;;;;;5114460;27;20032;-35
2024/01/20 00:37:51;;;;;;;3.58;1.15;;;21.70;36.70;;;;;;5114277;28;20019;-36
2024/01/20 00:40:17;;;;;;;2.47;1.10;;;21.60;36.10;;;;;;5115520;28;20178;-38
2024/01/20 00:42:43;;;;;;;1.52;1.10;;;21.50;36.30;;;;;;5113082;28;20028;-34
2024/01/20 00:45:09;;;;;;;2.13;1.05;;;21.50;36.10;;;;;;5112508;28;20039;-37
2024/01/20 00:47:36;;;;;;;0.80;0.80;;;21.60;35.90;;;;;;5115767;27;20036;-37
2024/01/20 00:50:04;;;;;;;1.92;1.13;;;21.80;35.50;;;;;;5121220;28;20053;-36
2024/01/20 00:52:30;;;;;;;2.47;1.00;;;21.90;35.60;;;;;;5121986;28;20460;-37
2024/01/20 00:54:57;;;;;;;1.67;1.13;;;22.00;35.70;;;;;;5122589;27;20046;-38
2024/01/20 00:57:23;;;;;;;2.30;1.05;;;22.10;35.70;;;;;;5119922;28;20023;-38
2024/01/20 00:59:49;;;;;;;1.83;1.20;;;22.10;35.30;;;;;;5119263;27;20042;-38
2024/01/20 01:02:16;;;;;;;1.23;1.00;;;22.20;34.90;;;;;;5117591;28;20028;-35
2024/01/20 01:04:43;;;;;;;1.30;1.20;;;22.30;34.90;;;;;;5116821;28;20087;-39
2024/01/20 01:07:09;;;;;;;1.45;1.08;;;22.30;35.20;;;;;;5113647;28;20331;-37
2024/01/20 01:09:36;;;;;;;1.50;1.23;;;22.10;35.50;;;;;;5112553;28;20031;-37
2024/01/20 01:12:02;;;;;;;1.23;1.13;;;22.00;35.70;;;;;;5112908;28;20031;-34
2024/01/20 01:14:29;;;;;;;2.42;1.15;;;21.90;35.60;;;;;;5112725;27;20046;-37
2024/01/20 01:16:55;;;;;;;1.40;1.30;;;22.00;35.30;;;;;;5112610;28;20030;-34
2024/01/20 01:19:22;;;;;;;1.77;1.40;;;22.00;35.20;;;;;;5113332;28;20543;-35
2024/01/20 01:21:48;;;;;;;;;;;22.00;35.20;;;;;;5114440;28;20028;-37
2024/01/20 01:24:14;;;;;;;1.35;1.25;;;21.90;35.50;;;;;;5111325;27;19911;-37
2024/01/20 01:26:40;;;;;;;1.48;1.15;;;21.80;35.60;;;;;;5113354;28;20058;-37
2024/01/20 01:29:07;;;;;;;1.88;1.48;;;21.70;35.70;;;;;;5111295;28;20036;-32
2024/01/20 01:31:33;;;;;;;2.00;1.50;;;21.80;35.40;;;;;;5113061;28;20515;-38
2024/01/20 01:33:59;;;;;;;2.03;1.27;;;22.00;35.10;;;;;;5110959;28;20063;-37
2024/01/20 01:36:25;;;;;;;1.38;1.27;;;22.10;34.90;;;;;;5111758;28;20032;-37
2024/01/20 01:38:51;;;;;;;1.40;1.30;;;22.20;35.20;;;;;;5117125;27;20099;-35
2024/01/20 01:41:19;;;;;;;1.42;1.30;;;22.30;35.30;;;;;;5115861;27;20027;-35
2024/01/20 01:43:45;;;;;;;1.23;1.13;;;22.30;34.80;;;;;;5115735;27;20031;-36
2024/01/20 01:46:11;;;;;;;1.48;1.30;;;22.40;34.40;;;;;;5117773;28;20039;-34
2024/01/20 01:48:37;;;;;;;1.25;1.00;;;22.40;34.40;;;;;;5118197;28;20031;-33
2024/01/20 01:51:04;;;;;;;1.25;1.15;;;22.40;34.80;;;;;;5116026;28;20027;-38
2024/01/20 01:53:34;;;;;;;1.40;1.30;;;22.30;35.10;;;;;;5115750;28;20024;-38
2024/01/20 01:56:00;;;;;;;1.73;1.52;;;22.10;35.20;;;;;;5114175;27;20038;-38
2024/01/20 01:58:27;;;;;;;1.42;1.33;;;22.10;35.10;;;;;;5119074;28;20032;-35
2024/01/20 02:00:54;;;;;;;1.33;1.23;;;22.10;34.90;;;;;;5115581;28;20031;-35
2024/01/20 02:03:20;;;;;;;1.50;1.30;;;22.20;34.90;;;;;;5115476;28;20033;-37
2024/01/20 02:05:46;;;;;;;1.63;0.95;;;22.10;35.00;;;;;;5119357;28;20069;-38
2024/01/20 02:08:13;;;;;;;1.35;1.23;;;22.00;35.20;;;;;;5116939;28;20028;-38
2024/01/20 02:10:41;;;;;;;1.95;1.30;;;21.90;35.40;;;;;;5118435;28;20043;-37
2024/01/20 02:13:07;;;;;;;0.98;0.88;;;21.90;35.30;;;;;;5115588;28;20061;-36
2024/01/20 02:15:34;;;;;;;1.25;1.10;;;21.90;35.00;;;;;;5116999;28;20031;-38
2024/01/20 02:18:00;;;;;;;1.60;1.00;;;22.00;34.90;;;;;;5113562;27;20038;-37
2024/01/20 02:20:26;;;;;;;1.45;0.88;;;22.00;35.00;;;;;;5113630;27;20023;-36
2024/01/20 02:22:52;;;;;;;1.02;0.90;;;22.10;34.90;;;;;;5111299;27;20038;-39
2024/01/20 02:25:18;;;;;;;1.60;1.20;;;22.20;34.80;;;;;;5117426;28;20039;-39
2024/01/20 02:27:45;;;;;;;1.13;0.90;;;22.30;34.90;;;;;;5141862;27;20055;-35
2024/01/20 02:30:11;;;;;;;1.00;0.90;;;22.30;35.00;;;;;;5110334;28;20035;-37
2024/01/20 02:32:37;;;;;;;1.10;0.80;;;22.30;35.20;;;;;;5108838;28;20044;-38
2024/01/20 02:35:03;;;;;;;0.80;0.70;;;22.20;35.20;;;;;;5108688;28;20028;-37
2024/01/20 02:37:30;;;;;;;0.70;0.70;;;22.10;35.40;;;;;;5112159;28;20141;-35
2024/01/20 02:39:59;;;;;;;1.02;0.88;;;21.90;35.50;;;;;;5109108;28;20291;-36
2024/01/20 02:42:25;;;;;;;1.20;0.82;;;21.90;35.70;;;;;;5110312;28;20110;-38
2024/01/20 02:44:51;;;;;;;1.25;0.82;;;21.80;35.40;;;;;;5110590;27;20035;-38
2024/01/20 02:47:18;;;;;;;0.98;0.70;;;21.80;35.40;;;;;;5108891;28;20031;-38
2024/01/20 02:49:44;;;;;;;1.27;0.85;;;21.80;35.60;;;;;;5107410;28;20056;-37
2024/01/20 02:52:10;;;;;;;0.75;0.68;;;21.80;35.70;;;;;;5110238;28;20096;-35
2024/01/20 02:54:36;;;;;;;2.08;0.75;;;21.60;35.80;;;;;;5111501;28;20503;-37
2024/01/20 02:57:03;;;;;;;0.70;0.65;;;21.60;35.70;;;;;;5114844;28;20051;-35
2024/01/20 02:59:29;;;;;;;0.80;0.60;;;21.70;35.70;;;;;;5113226;28;20189;-39
2024/01/20 03:01:55;;;;;;;0.60;0.55;;;21.80;35.70;;;;;;5115557;28;21165;-38
2024/01/20 03:04:21;;;;;;;0.90;0.70;;;22.00;35.30;;;;;;5118188;28;21522;-39
2024/01/20 03:06:48;;;;;;;0.85;0.60;;;22.10;35.20;;;;;;5110531;28;20032;-38
2024/01/20 03:09:14;;;;;;;0.50;0.50;;;22.20;35.10;;;;;;5110670;28;20028;-39
2024/01/20 03:11:43;;;;;;;0.77;0.60;;;22.20;35.20;;;;;;5108607;28;20027;-39
2024/01/20 03:14:12;;;;;;;0.98;0.82;;;22.20;35.20;;;;;;5104981;28;20040;-36
2024/01/20 03:16:39;;;;;;;1.02;0.70;;;22.20;35.00;;;;;;5107689;28;20056;-38
2024/01/20 03:19:06;;;;;;;0.87;0.60;;;22.10;35.20;;;;;;5107062;28;20039;-35
2024/01/20 03:21:33;;;;;;;0.60;0.60;;;21.90;35.30;;;;;;5100928;28;20318;-37
2024/01/20 03:23:59;;;;;;;0.60;0.47;;;21.80;35.50;;;;;;5106415;28;22924;-38
2024/01/20 03:26:25;;;;;;;0.50;0.50;;;21.80;35.40;;;;;;5108162;28;20099;-38
2024/01/20 03:28:51;;;;;;;0.47;0.47;;;21.80;35.10;;;;;;5108988;28;20035;-38
2024/01/20 03:31:18;;;;;;;1.30;0.60;;;21.80;35.20;;;;;;5109055;28;20042;-37
2024/01/20 03:33:44;;;;;;;1.00;0.60;;;21.70;35.30;;;;;;5109763;28;20034;-34
2024/01/20 03:36:11;;;;;;;1.25;0.50;;;21.70;35.50;;;;;;5113091;28;20131;-35
2024/01/20 03:38:37;;;;;;;0.35;0.32;;;21.50;35.60;;;;;;5112648;27;20042;-39
2024/01/20 03:41:04;;;;;;;0.45;0.35;;;21.50;35.50;;;;;;5116791;28;20028;-37
2024/01/20 03:43:30;;;;;;;0.60;0.40;;;21.70;35.50;;;;;;5120257;28;20031;-38
2024/01/20 03:45:56;;;;;;;0.30;0.30;;;21.90;35.40;;;;;;5121969;28;20047;-38
2024/01/20 03:48:22;;;;;;;0.43;0.40;;;22.00;35.10;;;;;;5116677;27;20035;-38
2024/01/20 03:50:48;;;;;;;0.60;0.30;;;22.10;35.00;;;;;;5120170;27;20045;-38
2024/01/20 03:53:14;;;;;;;0.47;0.47;;;22.20;35.00;;;;;;5112405;27;20031;-37
2024/01/20 03:55:41;;;;;;;0.50;0.30;;;22.20;35.10;;;;;;5119201;27;20101;-40
2024/01/20 03:58:07;;;;;;;0.30;0.30;;;22.20;35.00;;;;;;5111607;27;20048;-39
2024/01/20 04:00:33;;;;;;;0.50;0.40;;;22.20;34.90;;;;;;5117504;27;20032;-36
2024/01/20 04:02:59;;;;;;;0.50;0.30;;;22.00;35.10;;;;;;5114846;28;20024;-38
2024/01/20 04:05:25;;;;;;;0.57;0.35;;;21.90;35.10;;;;;;5119185;27;20796;-35
2024/01/20 04:07:52;;;;;;;0.38;0.38;;;21.80;35.30;;;;;;5115188;27;20020;-38
2024/01/20 04:10:18;;;;;;;0.47;0.40;;;21.80;35.30;;;;;;5112767;28;20039;-36
2024/01/20 04:12:44;;;;;;;0.40;0.40;;;21.80;35.00;;;;;;5113556;28;20050;-38
2024/01/20 04:15:10;;;;;;;0.38;0.38;;;21.80;35.00;;;;;;5117321;27;20087;-39
2024/01/20 04:17:36;;;;;;;0.30;0.30;;;21.70;35.20;;;;;;5110315;28;20095;-40
2024/01/20 04:20:04;;;;;;;0.90;0.50;;;21.60;35.30;;;;;;5110488;28;20586;-39
2024/01/20 04:22:30;;;;;;;0.55;0.35;;;21.50;36.00;;;;;;5111958;27;20078;-38
2024/01/20 04:24:57;;;;;;;0.20;0.20;;;21.60;35.40;;;;;;5114197;27;20039;-38
2024/01/20 04:27:23;;;;;;;0.63;0.32;;;21.70;35.30;;;;;;5112774;28;20076;-38
2024/01/20 04:29:49;;;;;;;0.70;0.40;;;21.90;35.10;;;;;;5115095;28;20509;-37
2024/01/20 04:32:15;;;;;;;0.30;0.30;;;21.90;35.10;;;;;;5112585;28;20027;-39
2024/01/20 04:34:41;;;;;;;0.50;0.40;;;21.80;35.10;;;;;;5114477;28;20027;-38
2024/01/20 04:37:07;;;;;;;0.65;0.20;;;21.60;35.20;;;;;;5116112;28;20028;-38
2024/01/20 04:39:34;;;;;;;0.30;0.30;;;21.50;35.40;;;;;;5115567;28;20098;-35
2024/01/20 04:42:00;;;;;;;0.43;0.40;;;21.50;35.30;;;;;;5117195;28;20055;-39
2024/01/20 04:44:26;;;;;;;0.63;0.40;;;21.50;35.10;;;;;;5116392;28;20027;-37
2024/01/20 04:46:52;;;;;;;0.70;0.35;;;21.50;35.20;;;;;;5112162;28;20023;-37
2024/01/20 04:49:18;;;;;;;0.20;0.20;;;21.40;35.30;;;;;;5110365;28;20020;-36
2024/01/20 04:51:46;;;;;;;0.40;0.30;;;21.30;35.40;;;;;;5120383;28;20035;-38
2024/01/20 04:54:12;;;;;;;0.43;0.40;;;21.40;35.40;;;;;;5110440;28;20031;-35
2024/01/20 04:56:38;;;;;;;0.60;0.40;;;21.50;35.30;;;;;;5112719;28;20027;-36
2024/01/20 04:59:04;;;;;;;0.70;0.40;;;21.60;35.10;;;;;;5110193;28;20118;-36
2024/01/20 05:01:30;;;;;;;0.40;0.30;;;21.80;34.90;;;;;;5108300;28;20035;-35
2024/01/20 05:03:58;;;;;;;0.20;0.20;;;21.90;34.70;;;;;;5112088;28;20042;-35
2024/01/20 05:06:24;;;;;;;0.45;0.30;;;21.90;34.80;;;;;;5112013;28;20043;-38
2024/01/20 05:08:50;;;;;;;0.30;0.30;;;22.00;34.70;;;;;;5112750;28;20036;-34
2024/01/20 05:11:16;;;;;;;0.30;0.20;;;22.00;34.70;;;;;;5110479;28;20499;-38
2024/01/20 05:13:42;;;;;;;0.65;0.40;;;21.90;34.60;;;;;;5109956;28;20032;-34
2024/01/20 05:16:09;;;;;;;0.30;0.30;;;21.80;34.80;;;;;;5110705;28;20087;-35
2024/01/20 05:18:36;;;;;;;0.45;0.30;;;21.70;34.90;;;;;;5112267;28;20052;-39
2024/01/20 05:21:02;;;;;;;0.40;0.35;;;21.60;35.20;;;;;;5110676;28;20115;-39
2024/01/20 05:23:28;;;;;;;0.70;0.30;;;21.60;35.00;;;;;;5111916;28;20097;-37
2024/01/20 05:25:54;;;;;;;2.03;0.25;;;21.60;34.80;;;;;;5109789;28;20044;-38
2024/01/20 05:28:20;;;;;;;1.07;0.40;;;21.60;34.80;;;;;;5015189;28;2903421;-38
2024/01/20 05:30:46;;;;;;;0.30;0.30;;;21.50;34.90;;;;;;5114455;27;20083;-38
2024/01/20 05:33:12;;;;;;;0.38;0.30;;;21.50;35.00;;;;;;5112275;28;20058;-39
2024/01/20 05:35:39;;;;;;;0.30;0.30;;;21.40;35.10;;;;;;5109096;28;20035;-38
2024/01/20 05:38:05;;;;;;;0.40;0.38;;;21.50;35.20;;;;;;5114592;28;20036;-38
2024/01/20 05:40:31;;;;;;;0.45;0.30;;;21.60;35.00;;;;;;5117931;27;20051;-37
2024/01/20 05:42:57;;;;;;;1.75;0.30;;;21.90;34.90;;;;;;5118551;28;20594;-38
2024/01/20 05:45:23;;;;;;;0.40;0.30;;;21.80;34.80;;;;;;5119629;28;20051;-37
2024/01/20 05:47:49;;;;;;;0.40;0.40;;;21.60;34.80;;;;;;5114206;28;20057;-37
2024/01/20 05:50:15;;;;;;;0.85;0.40;;;21.50;35.00;;;;;;5111993;27;20128;-37
2024/01/20 05:52:42;;;;;;;0.80;0.40;;;21.50;35.10;;;;;;5111780;28;20036;-36
2024/01/20 05:55:08;;;;;;;0.40;0.32;;;21.50;34.80;;;;;;5113891;28;20053;-37
2024/01/20 05:57:34;;;;;;;0.43;0.40;;;21.50;34.70;;;;;;5110600;28;20602;-37
2024/01/20 06:00:01;;;;;;;0.57;0.40;;;21.40;34.70;;;;;;5117496;28;20028;-37
2024/01/20 06:02:27;;;;;;;0.98;0.40;;;21.30;34.90;;;;;;5112591;27;20024;-36
2024/01/20 06:04:53;;;;;;;0.73;0.40;;;21.20;35.10;;;;;;5109148;28;20989;-36
2024/01/20 06:07:19;;;;;;;0.38;0.30;;;21.20;35.10;;;;;;5108979;28;20070;-37
2024/01/20 06:09:45;;;;;;;0.47;0.30;;;21.40;35.10;;;;;;5120924;27;20038;-38
2024/01/20 06:12:12;;;;;;;0.30;0.30;;;21.50;34.80;;;;;;5114214;28;20665;-37
2024/01/20 06:14:39;;;;;;;0.30;0.30;;;21.60;34.50;;;;;;5112514;28;20049;-34
2024/01/20 06:17:05;;;;;;;1.00;0.30;;;21.70;34.60;;;;;;5114724;28;20068;-32
2024/01/20 06:19:31;;;;;;;0.75;0.40;;;21.70;34.50;;;;;;5109443;28;20024;-35
2024/01/20 06:21:57;;;;;;;0.98;0.52;;;21.80;34.20;;;;;;5114109;28;20119;-35
2024/01/20 06:24:24;;;;;;;0.25;0.25;;;21.90;34.40;;;;;;5116240;28;20036;-38
2024/01/20 06:26:50;;;;;;;0.30;0.30;;;22.00;34.30;;;;;;5115901;27;20053;-36
2024/01/20 06:29:16;;;;;;;0.35;0.30;;;22.00;34.30;;;;;;5115752;28;20045;-37
2024/01/20 06:31:42;;;;;;;0.73;0.40;;;21.80;34.10;;;;;;5117062;28;20099;-37
2024/01/20 06:34:08;;;;;;;0.40;0.30;;;21.70;34.30;;;;;;5116676;28;20027;-38
2024/01/20 06:36:34;;;;;;;0.57;0.20;;;21.60;34.40;;;;;;5119003;28;20053;-38
2024/01/20 06:39:01;;;;;;;0.30;0.30;;;21.60;34.20;;;;;;5118949;28;20027;-37
2024/01/20 06:41:27;;;;;;;0.63;0.32;;;21.60;34.20;;;;;;5119907;28;20024;-41
2024/01/20 06:43:53;;;;;;;0.68;0.50;;;21.50;34.20;;;;;;5120657;28;20035;-39
2024/01/20 06:46:19;;;;;;;1.95;0.30;;;21.40;34.40;;;;;;5119254;28;20073;-38
2024/01/20 06:48:45;;;;;;;0.30;0.30;;;21.30;35.00;;;;;;5118657;28;20079;-39
2024/01/20 06:51:14;;;;;;;0.30;0.30;;;21.30;34.80;;;;;;5119261;28;20123;-34
2024/01/20 06:53:42;;;;;;;0.57;0.30;;;21.30;34.60;;;;;;5116740;28;20031;-37
2024/01/20 06:56:08;;;;;;;0.75;0.30;;;21.50;34.60;;;;;;5115751;28;20115;-36
2024/01/20 06:58:34;;;;;;;0.47;0.30;;;21.60;34.30;;;;;;5118789;28;20050;-39
2024/01/20 07:01:01;;;;;;;0.88;0.20;;;21.70;34.10;;;;;;5117008;28;20034;-36
2024/01/20 07:03:27;;;;;;;0.37;0.30;;;21.80;34.60;;;;;;5116595;28;20674;-37
2024/01/20 07:05:53;;;;;;;3.70;0.40;;;21.90;34.10;;;;;;5117113;28;20051;-38
2024/01/20 07:08:19;;;;;;;1.25;0.38;;;22.00;34.00;;;;;;5116168;28;20020;-38
2024/01/20 07:10:46;;;;;;;0.43;0.40;;;21.90;34.30;;;;;;5117357;28;20036;-39
2024/01/20 07:13:12;;;;;;;0.73;0.40;;;21.80;34.10;;;;;;5115847;28;20031;-36
2024/01/20 07:15:38;;;;;;;0.30;0.30;;;21.70;34.40;;;;;;5117211;28;20108;-37
2024/01/20 07:18:04;;;;;;;0.75;0.35;;;21.50;34.40;;;;;;5118571;28;20054;-38
2024/01/20 07:20:30;;;;;;;0.40;0.40;;;21.50;34.60;;;;;;5116561;28;20032;-35
2024/01/20 07:22:56;;;;;;;0.73;0.30;;;21.50;34.50;;;;;;5117471;28;20043;-37
2024/01/20 07:25:22;;;;;;;0.60;0.30;;;21.40;34.40;;;;;;5119491;28;20125;-37
2024/01/20 07:27:49;;;;;;;0.47;0.40;;;21.40;34.30;;;;;;5118969;28;20047;-36
2024/01/20 07:30:15;;;;;;;0.30;0.30;;;21.30;34.40;;;;;;5119642;28;20032;-37
2024/01/20 07:32:41;;;;;;;0.73;0.43;;;21.20;34.70;;;;;;5119969;28;20047;-37
2024/01/20 07:35:08;;;;;;;1.13;0.30;;;21.20;34.60;;;;;;5119263;28;20027;-38
2024/01/20 07:37:37;;;;;;;0.50;0.30;;;21.40;34.70;;;;;;5115464;28;20024;-38
2024/01/20 07:40:05;;;;;;;1.70;0.30;;;21.60;34.50;;;;;;5119035;28;20039;-38
2024/01/20 07:42:32;;;;;;;2.17;0.30;;;21.70;34.20;;;;;;5119295;28;20035;-39
2024/01/20 07:44:59;;;;;;;0.28;0.20;;;21.80;34.10;;;;;;5118915;28;20069;-38
2024/01/20 07:47:25;;;;;;;0.30;0.30;;;21.80;34.20;;;;;;5118331;28;20568;-37
2024/01/20 07:49:51;;;;;;;0.30;0.30;;;21.90;33.90;;;;;;5117714;28;20030;-38
2024/01/20 07:52:18;;;;;;;0.32;0.22;;;22.00;33.70;;;;;;5116429;28;20028;-38
2024/01/20 07:54:44;;;;;;;0.40;0.30;;;21.90;34.00;;;;;;5115234;28;20123;-38
2024/01/20 07:57:10;;;;;;;0.47;0.30;;;21.80;34.00;;;;;;5116744;28;20032;-38
2024/01/20 07:59:36;;;;;;;0.50;0.30;;;21.60;34.20;;;;;;5116720;28;20078;-36
2024/01/20 08:02:03;;;;;;;0.50;0.40;;;21.50;34.40;;;;;;5117725;28;20044;-33
2024/01/20 08:04:29;;;;;;;1.00;0.25;;;21.50;34.30;;;;;;5119307;28;20110;-38
2024/01/20 08:06:55;;;;;;;0.50;0.40;;;21.40;34.00;;;;;;5119201;28;20042;-39
2024/01/20 08:09:21;;;;;;;0.50;0.50;;;21.40;34.00;;;;;;5116937;28;20028;-38
2024/01/20 08:11:47;;;;;;;0.28;0.28;;;21.40;34.20;;;;;;5123586;28;20034;-38
2024/01/20 08:14:14;;;;;;;0.30;0.30;;;21.20;34.50;;;;;;5121829;28;20822;-37
2024/01/20 08:16:40;;;;;;;0.57;0.35;;;21.10;34.80;;;;;;5121445;28;20039;-38
2024/01/20 08:19:06;;;;;;;0.35;0.30;;;21.30;34.60;;;;;;5122081;27;20201;-35
2024/01/20 08:21:33;;;;;;;0.32;0.30;;;21.40;34.30;;;;;;5122034;28;20053;-38
2024/01/20 08:23:59;;;;;;;;;;;21.50;34.00;;;;;;5121801;28;20036;-39
2024/01/20 08:26:25;;;;;;;0.52;0.40;;;21.70;33.70;;;;;;5113516;27;19919;-37
2024/01/20 08:28:51;;;;;;;0.20;0.20;;;21.70;33.70;;;;;;5116888;28;20036;-37
2024/01/20 08:31:18;;;;;;;0.43;0.30;;;21.80;33.80;;;;;;5120228;28;20031;-39
2024/01/20 08:33:44;;;;;;;0.52;0.40;;;21.80;33.70;;;;;;5119324;28;20033;-37
2024/01/20 08:36:10;;;;;;;0.40;0.40;;;21.90;33.50;;;;;;5119116;27;20488;-38
2024/01/20 08:38:36;;;;;;;0.50;0.50;;;22.00;33.40;;;;;;5116708;28;20031;-39
2024/01/20 08:41:09;;;;;;;0.50;0.40;;;21.80;33.50;;;;;;5113164;28;20031;-39
2024/01/20 08:43:39;;;;;;;0.40;0.30;;;21.70;33.80;;;;;;5118763;28;20138;-38
2024/01/20 08:46:05;;;;;;;0.32;0.30;;;21.50;34.30;;;;;;5117545;27;20078;-39
2024/01/20 08:48:33;;;;;;;0.47;0.40;;;21.50;34.20;;;;;;5114463;28;20084;-39
2024/01/20 08:50:59;;;;;;;;;;;21.40;33.90;;;;;;5113003;28;20043;-37
2024/01/20 08:53:27;;;;;;;0.65;0.40;;;21.40;33.80;;;;;;5112235;27;20581;-35
2024/01/20 08:55:53;;;;;;;2.28;0.40;;;21.40;33.80;;;;;;5111891;28;20095;-33
2024/01/20 08:58:19;;;;;;;1.05;0.40;;;21.30;34.10;;;;;;5113139;27;20053;-37
2024/01/20 09:00:46;;;;;;;0.77;0.50;;;21.10;35.20;;;;;;5109068;28;20035;-38
2024/01/20 09:03:12;;;;;;;2.63;0.50;;;21.20;34.70;;;;;;5107977;27;20051;-38
2024/01/20 09:05:38;;;;;;;0.90;0.38;;;21.30;34.40;;;;;;5109407;28;20043;-37
2024/01/20 09:08:05;;;;;;;0.93;0.45;;;21.50;34.10;;;;;;5105092;28;20031;-38
2024/01/20 09:10:31;;;;;;;0.70;0.50;;;21.70;33.80;;;;;;5104830;28;20034;-38
2024/01/20 09:12:57;;;;;;;0.47;0.28;;;21.70;33.50;;;;;;5101196;28;20024;-34
2024/01/20 09:15:23;;;;;;;0.40;0.40;;;21.80;33.70;;;;;;5107747;28;20150;-36
2024/01/20 09:17:49;;;;;;;0.85;0.40;;;21.90;33.60;;;;;;5109724;28;20032;-39
2024/01/20 09:20:15;;;;;;;0.40;0.35;;;21.90;33.40;;;;;;5110683;28;20366;-38
2024/01/20 09:22:42;;;;;;;0.47;0.40;;;22.00;33.20;;;;;;5112072;28;20040;-36
2024/01/20 09:25:08;;;;;;;0.52;0.40;;;22.10;33.10;;;;;;5111857;28;20035;-39
2024/01/20 09:27:34;;;;;;;1.60;0.70;;;21.90;33.30;;;;;;5113246;28;20052;-37
2024/01/20 09:30:00;;;;;;;0.40;0.40;;;21.70;33.40;;;;;;5112521;27;20039;-39
2024/01/20 09:32:30;;;;;;;0.68;0.40;;;21.60;33.90;;;;;;5118135;28;20050;-38
2024/01/20 09:34:56;;;;;;;0.43;0.40;;;21.50;33.90;;;;;;5116209;28;20027;-36
2024/01/20 09:37:22;;;;;;;0.70;0.50;;;21.50;33.50;;;;;;5117178;28;20023;-39
2024/01/20 09:39:48;;;;;;;0.38;0.38;;;21.50;33.40;;;;;;5113960;28;20070;-39
2024/01/20 09:42:15;;;;;;;0.50;0.50;;;21.40;33.50;;;;;;5117301;28;20028;-38
2024/01/20 09:44:41;;;;;;;0.55;0.40;;;21.30;33.70;;;;;;5118148;28;20059;-36
2024/01/20 09:47:11;;;;;;;2.65;0.60;;;21.10;34.00;;;;;;5115290;28;20050;-36
2024/01/20 09:49:38;;;;;;;0.95;0.40;;;21.20;33.90;;;;;;5109129;28;20039;-37
2024/01/20 09:52:16;;;;;;;0.30;0.30;;;21.40;33.80;;;;;;5106867;28;20388;-36
2024/01/20 09:54:45;;;;;;;;;;;21.50;33.70;;;;;;5144235;27;20156;-36
2024/01/20 09:57:11;;;;;;;1.80;0.40;;;21.60;33.30;;;;;;5109180;27;19912;-35
2024/01/20 09:59:40;;;;;;;0.63;0.50;;;21.70;33.30;;;;;;5110224;28;20141;-35
2024/01/20 10:02:07;;;;;;;0.55;0.40;;;21.70;33.40;;;;;;5093088;28;20039;-37
2024/01/20 10:04:33;;;;;;;0.50;0.50;;;21.80;33.40;;;;;;5095430;28;20027;-38
2024/01/20 10:07:00;;;;;;;0.65;0.52;;;21.80;33.80;;;;;;5111114;28;20040;-35
2024/01/20 10:09:28;;;;;;;0.63;0.50;;;21.90;33.10;;;;;;5107878;27;20030;-38
2024/01/20 10:11:55;;;;;;;0.80;0.30;;;21.90;33.10;;;;;;5110623;28;20066;-33
2024/01/20 10:14:22;;;;;;;0.50;0.50;;;22.00;33.20;;;;;;5106280;28;20496;-38
2024/01/20 10:16:49;;;;;;;0.65;0.40;;;22.00;33.20;;;;;;5111004;28;20035;-36
2024/01/20 10:19:15;;;;;;;0.40;0.38;;;22.00;33.00;;;;;;5117880;27;20039;-38
2024/01/20 10:21:41;;;;;;;0.47;0.40;;;22.20;32.80;;;;;;5118045;28;20035;-37
2024/01/20 10:24:10;;;;;;;0.40;0.32;;;22.20;32.80;;;;;;5116947;28;20027;-35
2024/01/20 10:26:43;;;;;;;0.80;0.40;;;22.10;32.70;;;;;;5118224;28;20053;-39
2024/01/20 10:29:09;;;;;;;0.75;0.40;;;21.90;32.80;;;;;;5118017;28;20503;-36
2024/01/20 10:31:36;;;;;;;0.60;0.40;;;21.80;33.00;;;;;;5109360;28;20059;-38
2024/01/20 10:34:02;;;;;;;0.80;0.43;;;21.70;32.90;;;;;;5108914;28;20276;-35
2024/01/20 10:36:28;;;;;;;0.68;0.50;;;21.70;32.80;;;;;;5117806;27;20614;-39
2024/01/20 10:38:55;;;;;;;0.60;0.47;;;21.70;32.70;;;;;;5118977;27;20181;-37
2024/01/20 10:41:24;;;;;;;0.50;0.40;;;21.60;32.70;;;;;;5116048;28;20124;-39
2024/01/20 10:44:02;;;;;;;0.77;0.50;;;21.50;32.90;;;;;;5115785;28;20065;-38
2024/01/20 10:46:33;;;;;;;0.80;0.32;;;21.30;33.00;;;;;;5116614;28;20044;-37
2024/01/20 10:49:00;;;;;;;0.43;0.40;;;21.30;33.10;;;;;;5116646;28;20032;-37
2024/01/20 10:51:27;;;;;;;0.55;0.40;;;21.40;33.00;;;;;;5100165;28;20127;-37
2024/01/20 10:53:56;;;;;;;0.80;0.40;;;21.50;33.00;;;;;;5116199;28;20035;-39
2024/01/20 10:56:24;;;;;;;0.57;0.40;;;21.60;32.90;;;;;;5119072;28;20024;-39
2024/01/20 10:59:14;;;;;;;0.40;0.30;;;21.70;32.50;;;;;;5117569;28;20083;-38
2024/01/20 11:01:41;;;;;;;0.60;0.60;;;21.70;32.60;;;;;;5111226;28;20047;-37
2024/01/20 11:04:07;;;;;;;0.38;0.30;;;21.70;32.60;;;;;;5109461;28;20039;-37
2024/01/20 11:06:35;;;;;;;0.75;0.50;;;21.80;32.50;;;;;;5111777;28;20052;-37
2024/01/20 11:09:01;;;;;;;0.80;0.40;;;21.80;32.40;;;;;;5111562;28;20123;-37
2024/01/20 11:11:28;;;;;;;0.52;0.47;;;21.90;32.30;;;;;;5112269;28;20039;-38
2024/01/20 11:13:59;;;;;;;0.47;0.40;;;22.00;31.90;;;;;;5110389;28;20039;-39
2024/01/20 11:16:28;;;;;;;0.40;0.30;;;22.00;32.00;;;;;;5111813;28;20039;-37
2024/01/20 11:19:07;;;;;;;0.60;0.60;;;22.00;32.20;;;;;;5109637;28;20057;-37
2024/01/20 11:21:33;;;;;;;0.68;0.57;;;22.10;32.20;;;;;;5112577;28;20077;-36
2024/01/20 11:24:00;;;;;;;1.98;0.60;;;22.10;32.00;;;;;;5109433;28;20556;-37
2024/01/20 11:26:36;;;;;;;0.53;0.50;;;22.20;32.00;;;;;;5109856;28;20817;-35
2024/01/20 11:29:04;;;;;;;0.40;0.40;;;22.10;31.80;;;;;;5111185;28;20043;-38
2024/01/20 11:31:31;;;;;;;1.05;0.50;;;21.90;32.00;;;;;;5116096;28;20120;-37
2024/01/20 11:34:04;;;;;;;0.43;0.40;;;21.80;32.10;;;;;;5118008;28;20062;-38
2024/01/20 11:36:31;;;;;;;0.70;0.50;;;21.80;31.90;;;;;;5112823;28;20320;-36
2024/01/20 11:39:18;;;;;;;0.65;0.43;;;21.70;31.80;;;;;;5065760;28;20070;-37
2024/01/20 11:41:44;;;;;;;0.80;0.50;;;21.70;31.70;;;;;;5040451;28;20037;-38
2024/01/20 11:44:10;;;;;;;0.50;0.40;;;21.60;32.10;;;;;;5063135;28;20151;-37
2024/01/20 11:46:37;;;;;;;0.57;0.50;;;21.40;32.30;;;;;;5070553;28;20076;-39
2024/01/20 11:49:03;;;;;;;0.52;0.40;;;21.30;32.30;;;;;;5073944;28;20032;-39
2024/01/20 11:51:29;;;;;;;0.85;0.40;;;21.30;32.20;;;;;;5072092;28;20102;-39
2024/01/20 11:53:55;;;;;;;0.45;0.40;;;21.40;32.90;;;;;;5065912;28;20082;-38
2024/01/20 11:56:21;;;;;;;0.60;0.50;;;21.60;32.30;;;;;;5069224;28;20041;-37
2024/01/20 11:58:47;;;;;;;0.70;0.40;;;21.70;31.90;;;;;;5057991;28;20119;-37
2024/01/20 12:01:14;;;;;;;0.50;0.40;;;21.70;31.70;;;;;;5064402;28;20647;-38
2024/01/20 12:03:40;;;;;;;0.70;0.47;;;21.80;31.90;;;;;;5062907;28;20040;-37
2024/01/20 12:06:10;;;;;;;0.98;0.57;;;21.80;31.90;;;;;;5061710;28;20580;-39
2024/01/20 12:08:40;;;;;;;0.57;0.40;;;21.90;31.90;;;;;;5061990;28;20043;-38
2024/01/20 12:11:06;;;;;;;0.60;0.50;;;22.00;31.60;;;;;;5061648;28;20044;-38
2024/01/20 12:13:35;;;;;;;0.73;0.43;;;22.00;31.50;;;;;;5063498;28;20701;-39
2024/01/20 12:16:01;;;;;;;1.13;0.55;;;22.00;31.40;;;;;;5082702;28;20040;-39
2024/01/20 12:18:27;;;;;;;0.70;0.50;;;22.10;31.50;;;;;;5112021;27;20516;-38
2024/01/20 12:20:53;;;;;;;0.40;0.40;;;22.10;31.40;;;;;;5115328;28;20036;-37
2024/01/20 12:23:20;;;;;;;0.60;0.50;;;22.20;31.40;;;;;;5114933;28;20769;-37
2024/01/20 12:25:47;;;;;;;0.90;0.50;;;22.20;31.40;;;;;;5113298;28;20044;-37
2024/01/20 12:28:13;;;;;;;0.60;0.40;;;22.10;31.60;;;;;;5112455;27;20060;-39
2024/01/20 12:30:39;;;;;;;2.97;0.45;;;21.90;31.60;;;;;;5117639;28;20047;-38
2024/01/20 12:33:05;;;;;;;0.70;0.50;;;21.80;32.00;;;;;;5121407;28;20035;-36
2024/01/20 12:35:32;;;;;;;0.98;0.50;;;21.70;31.70;;;;;;5120104;28;20020;-39
2024/01/20 12:37:58;;;;;;;0.52;0.50;;;21.70;31.70;;;;;;5121010;28;20028;-37
2024/01/20 12:40:24;;;;;;;1.17;0.60;;;21.60;31.50;;;;;;5119368;28;20046;-37
2024/01/20 12:42:51;;;;;;;0.50;0.40;;;21.60;31.80;;;;;;5119538;28;20043;-37
2024/01/20 12:45:17;;;;;;;0.67;0.50;;;21.40;32.00;;;;;;5117820;28;20067;-37